sensor_id;sensor_type;location;lat;lon;timestamp;temperature;humidity
9410;DHT22;4744;52.576;13.568;2022-12-07T00:01:30;3.10;6.90
9410;DHT22;4744;52.576;13.568;2022-12-07T00:03:58;3.10;2.60
9410;DHT22;4744;52.576;13.568;2022-12-07T00:06:30;3.10;1.00
9410;DHT22;4744;52.576;13.568;2022-12-07T00:08:58;3.00;1.00
9410;DHT22;4744;52.576;13.568;2022-12-07T00:11:26;3.00;1.00
9410;DHT22;4744;52.576;13.568;2022-12-07T00:13:55;2.90;1.00
9410;DHT22;4744;52.576;13.568;2022-12-07T00:16:24;2.90;1.00
9410;DHT22;4744;52.576;13.568;2022-12-07T00:18:51;2.90;1.00
9410;DHT22;4744;52.576;13.568;2022-12-07T00:21:21;2.80;1.00
9410;DHT22;4744;52.576;13.568;2022-12-07T00:23:49;2.80;1.00
9410;DHT22;4744;52.576;13.568;2022-12-07T00:26:19;2.80;1.00
9410;DHT22;4744;52.576;13.568;2022-12-07T00:28:48;2.70;1.00
9410;DHT22;4744;52.576;13.568;2022-12-07T00:31:16;2.70;1.00
9410;DHT22;4744;52.576;13.568;2022-12-07T00:33:43;2.70;1.00
9410;DHT22;4744;52.576;13.568;2022-12-07T00:36:13;2.70;1.00
9410;DHT22;4744;52.576;13.568;2022-12-07T00:38:40;2.60;1.00
9410;DHT22;4744;52.576;13.568;2022-12-07T00:41:11;2.60;1.00
9410;DHT22;4744;52.576;13.568;2022-12-07T00:43:39;2.60;1.00
9410;DHT22;4744;52.576;13.568;2022-12-07T00:46:08;2.50;1.00
9410;DHT22;4744;52.576;13.568;2022-12-07T00:48:35;2.50;1.00
9410;DHT22;4744;52.576;13.568;2022-12-07T00:51:03;2.50;1.00
9410;DHT22;4744;52.576;13.568;2022-12-07T00:53:30;2.50;1.00
9410;DHT22;4744;52.576;13.568;2022-12-07T00:55:57;2.50;1.00
9410;DHT22;4744;52.576;13.568;2022-12-07T00:58:24;2.50;1.00
9410;DHT22;4744;52.576;13.568;2022-12-07T01:00:51;2.40;1.00
9410;DHT22;4744;52.576;13.568;2022-12-07T01:03:19;2.40;1.00
9410;DHT22;4744;52.576;13.568;2022-12-07T01:05:50;2.40;1.00
9410;DHT22;4744;52.576;13.568;2022-12-07T01:08:18;2.40;1.00
9410;DHT22;4744;52.576;13.568;2022-12-07T01:10:45;2.40;1.00
9410;DHT22;4744;52.576;13.568;2022-12-07T01:13:12;2.40;1.00
9410;DHT22;4744;52.576;13.568;2022-12-07T01:15:40;2.40;1.00
9410;DHT22;4744;52.576;13.568;2022-12-07T01:18:07;2.40;1.00
9410;DHT22;4744;52.576;13.568;2022-12-07T01:20:35;2.40;1.00
9410;DHT22;4744;52.576;13.568;2022-12-07T01:23:03;2.40;1.00
9410;DHT22;4744;52.576;13.568;2022-12-07T01:25:30;2.40;1.00
9410;DHT22;4744;52.576;13.568;2022-12-07T01:27:57;2.30;1.00
9410;DHT22;4744;52.576;13.568;2022-12-07T01:30:24;2.30;1.00
9410;DHT22;4744;52.576;13.568;2022-12-07T01:32:51;2.20;1.00
9410;DHT22;4744;52.576;13.568;2022-12-07T01:35:18;2.20;1.00
9410;DHT22;4744;52.576;13.568;2022-12-07T01:37:46;2.20;1.00
9410;DHT22;4744;52.576;13.568;2022-12-07T01:40:13;2.20;1.00
9410;DHT22;4744;52.576;13.568;2022-12-07T01:42:40;2.20;1.00
9410;DHT22;4744;52.576;13.568;2022-12-07T01:48:13;2.20;1.00
9410;DHT22;4744;52.576;13.568;2022-12-07T01:50:43;2.20;1.00
9410;DHT22;4744;52.576;13.568;2022-12-07T01:53:12;2.20;1.00
9410;DHT22;4744;52.576;13.568;2022-12-07T01:55:42;2.20;1.00
9410;DHT22;4744;52.576;13.568;2022-12-07T01:58:11;2.20;1.00
9410;DHT22;4744;52.576;13.568;2022-12-07T02:00:39;2.20;1.00
9410;DHT22;4744;52.576;13.568;2022-12-07T02:03:11;2.20;1.00
9410;DHT22;4744;52.576;13.568;2022-12-07T02:05:40;2.10;1.00
9410;DHT22;4744;52.576;13.568;2022-12-07T02:08:08;2.10;1.00
9410;DHT22;4744;52.576;13.568;2022-12-07T02:10:37;2.10;1.00
9410;DHT22;4744;52.576;13.568;2022-12-07T02:13:06;2.10;1.00
9410;DHT22;4744;52.576;13.568;2022-12-07T02:15:50;2.10;1.00
9410;DHT22;4744;52.576;13.568;2022-12-07T02:18:25;2.10;1.00
9410;DHT22;4744;52.576;13.568;2022-12-07T02:21:01;2.10;1.00
9410;DHT22;4744;52.576;13.568;2022-12-07T02:23:46;2.10;1.00
9410;DHT22;4744;52.576;13.568;2022-12-07T02:29:24;2.10;1.00
9410;DHT22;4744;52.576;13.568;2022-12-07T02:32:01;2.10;1.00
9410;DHT22;4744;52.576;13.568;2022-12-07T02:34:37;2.10;1.00
9410;DHT22;4744;52.576;13.568;2022-12-07T02:37:12;2.10;1.00
9410;DHT22;4744;52.576;13.568;2022-12-07T02:39:44;2.10;1.00
9410;DHT22;4744;52.576;13.568;2022-12-07T02:42:17;2.00;1.00
9410;DHT22;4744;52.576;13.568;2022-12-07T02:44:47;2.00;1.00
9410;DHT22;4744;52.576;13.568;2022-12-07T02:47:16;2.00;1.00
9410;DHT22;4744;52.576;13.568;2022-12-07T02:49:44;2.00;1.00
9410;DHT22;4744;52.576;13.568;2022-12-07T02:52:11;2.00;1.00
9410;DHT22;4744;52.576;13.568;2022-12-07T02:54:38;2.00;1.00
9410;DHT22;4744;52.576;13.568;2022-12-07T03:00:04;1.90;1.00
9410;DHT22;4744;52.576;13.568;2022-12-07T03:02:39;1.90;1.00
9410;DHT22;4744;52.576;13.568;2022-12-07T03:05:20;1.90;1.00
9410;DHT22;4744;52.576;13.568;2022-12-07T03:07:53;1.90;1.00
9410;DHT22;4744;52.576;13.568;2022-12-07T03:10:27;1.90;1.00
9410;DHT22;4744;52.576;13.568;2022-12-07T03:13:01;1.90;1.00
9410;DHT22;4744;52.576;13.568;2022-12-07T03:15:33;1.90;1.00
9410;DHT22;4744;52.576;13.568;2022-12-07T03:18:01;1.90;1.00
9410;DHT22;4744;52.576;13.568;2022-12-07T03:20:30;1.90;1.00
9410;DHT22;4744;52.576;13.568;2022-12-07T03:22:59;1.90;1.00
9410;DHT22;4744;52.576;13.568;2022-12-07T03:25:26;1.90;1.00
9410;DHT22;4744;52.576;13.568;2022-12-07T03:27:57;1.90;1.00
9410;DHT22;4744;52.576;13.568;2022-12-07T03:30:28;2.00;1.00
9410;DHT22;4744;52.576;13.568;2022-12-07T03:33:00;2.00;1.00
9410;DHT22;4744;52.576;13.568;2022-12-07T03:35:32;1.90;1.00
9410;DHT22;4744;52.576;13.568;2022-12-07T03:38:07;1.90;1.00
9410;DHT22;4744;52.576;13.568;2022-12-07T03:40:39;1.90;1.00
9410;DHT22;4744;52.576;13.568;2022-12-07T03:43:07;2.00;1.00
9410;DHT22;4744;52.576;13.568;2022-12-07T03:45:39;1.90;1.00
9410;DHT22;4744;52.576;13.568;2022-12-07T03:48:14;2.00;1.00
9410;DHT22;4744;52.576;13.568;2022-12-07T03:50:45;2.00;1.00
9410;DHT22;4744;52.576;13.568;2022-12-07T03:53:17;2.00;1.00
9410;DHT22;4744;52.576;13.568;2022-12-07T03:55:46;2.00;1.00
9410;DHT22;4744;52.576;13.568;2022-12-07T03:58:16;2.00;1.00
9410;DHT22;4744;52.576;13.568;2022-12-07T04:00:44;2.00;1.00
9410;DHT22;4744;52.576;13.568;2022-12-07T04:03:12;2.10;1.00
9410;DHT22;4744;52.576;13.568;2022-12-07T04:05:40;2.00;1.00
9410;DHT22;4744;52.576;13.568;2022-12-07T04:08:07;2.10;1.00
9410;DHT22;4744;52.576;13.568;2022-12-07T04:10:34;2.10;1.00
9410;DHT22;4744;52.576;13.568;2022-12-07T04:13:01;2.10;1.00
9410;DHT22;4744;52.576;13.568;2022-12-07T04:15:28;2.10;1.00
9410;DHT22;4744;52.576;13.568;2022-12-07T04:17:55;2.00;1.00
9410;DHT22;4744;52.576;13.568;2022-12-07T04:20:23;2.00;1.00
9410;DHT22;4744;52.576;13.568;2022-12-07T04:22:50;1.90;1.00
9410;DHT22;4744;52.576;13.568;2022-12-07T04:25:17;1.90;1.00
9410;DHT22;4744;52.576;13.568;2022-12-07T04:27:44;1.90;1.00
9410;DHT22;4744;52.576;13.568;2022-12-07T04:30:11;1.90;1.00
9410;DHT22;4744;52.576;13.568;2022-12-07T04:32:38;1.80;1.00
9410;DHT22;4744;52.576;13.568;2022-12-07T04:35:06;1.80;1.00
9410;DHT22;4744;52.576;13.568;2022-12-07T04:37:34;1.80;1.00
9410;DHT22;4744;52.576;13.568;2022-12-07T04:40:01;1.80;1.00
9410;DHT22;4744;52.576;13.568;2022-12-07T04:42:28;1.80;1.00
9410;DHT22;4744;52.576;13.568;2022-12-07T04:44:55;1.90;1.00
9410;DHT22;4744;52.576;13.568;2022-12-07T04:47:22;1.90;1.00
9410;DHT22;4744;52.576;13.568;2022-12-07T04:49:49;1.80;1.00
9410;DHT22;4744;52.576;13.568;2022-12-07T04:52:16;1.90;1.00
9410;DHT22;4744;52.576;13.568;2022-12-07T04:54:44;1.90;1.00
9410;DHT22;4744;52.576;13.568;2022-12-07T04:57:11;1.90;1.00
9410;DHT22;4744;52.576;13.568;2022-12-07T04:59:38;1.90;1.00
9410;DHT22;4744;52.576;13.568;2022-12-07T05:02:05;1.90;1.00
9410;DHT22;4744;52.576;13.568;2022-12-07T05:04:32;1.80;1.00
9410;DHT22;4744;52.576;13.568;2022-12-07T05:06:59;1.90;1.00
9410;DHT22;4744;52.576;13.568;2022-12-07T05:09:26;1.90;1.00
9410;DHT22;4744;52.576;13.568;2022-12-07T05:11:54;1.90;1.00
9410;DHT22;4744;52.576;13.568;2022-12-07T05:14:21;1.90;1.00
9410;DHT22;4744;52.576;13.568;2022-12-07T05:16:49;1.90;1.00
9410;DHT22;4744;52.576;13.568;2022-12-07T05:19:16;1.90;1.00
9410;DHT22;4744;52.576;13.568;2022-12-07T05:21:44;1.90;1.00
9410;DHT22;4744;52.576;13.568;2022-12-07T05:24:12;2.00;1.00
9410;DHT22;4744;52.576;13.568;2022-12-07T05:26:40;2.00;1.00
9410;DHT22;4744;52.576;13.568;2022-12-07T05:29:11;2.00;1.00
9410;DHT22;4744;52.576;13.568;2022-12-07T05:31:38;2.10;1.00
9410;DHT22;4744;52.576;13.568;2022-12-07T05:34:05;2.10;1.00
9410;DHT22;4744;52.576;13.568;2022-12-07T05:36:32;2.10;1.00
9410;DHT22;4744;52.576;13.568;2022-12-07T05:38:59;2.10;1.00
9410;DHT22;4744;52.576;13.568;2022-12-07T05:41:26;2.20;1.00
9410;DHT22;4744;52.576;13.568;2022-12-07T05:44:12;2.20;1.00
9410;DHT22;4744;52.576;13.568;2022-12-07T05:46:38;2.20;1.00
9410;DHT22;4744;52.576;13.568;2022-12-07T05:49:06;2.20;1.00
9410;DHT22;4744;52.576;13.568;2022-12-07T05:51:32;2.20;1.00
9410;DHT22;4744;52.576;13.568;2022-12-07T05:53:59;2.30;1.00
9410;DHT22;4744;52.576;13.568;2022-12-07T05:56:26;2.30;1.00
9410;DHT22;4744;52.576;13.568;2022-12-07T05:58:53;2.30;1.00
9410;DHT22;4744;52.576;13.568;2022-12-07T06:01:35;2.30;1.00
9410;DHT22;4744;52.576;13.568;2022-12-07T06:04:02;2.30;1.00
9410;DHT22;4744;52.576;13.568;2022-12-07T06:06:29;2.30;1.00
9410;DHT22;4744;52.576;13.568;2022-12-07T06:08:56;2.40;1.00
9410;DHT22;4744;52.576;13.568;2022-12-07T06:11:23;2.50;1.00
9410;DHT22;4744;52.576;13.568;2022-12-07T06:14:08;2.50;1.00
9410;DHT22;4744;52.576;13.568;2022-12-07T06:16:36;2.50;1.00
9410;DHT22;4744;52.576;13.568;2022-12-07T06:19:03;2.50;1.00
9410;DHT22;4744;52.576;13.568;2022-12-07T06:21:30;2.60;1.00
9410;DHT22;4744;52.576;13.568;2022-12-07T06:23:57;2.60;1.00
9410;DHT22;4744;52.576;13.568;2022-12-07T06:26:24;2.60;1.00
9410;DHT22;4744;52.576;13.568;2022-12-07T06:28:51;2.70;1.00
9410;DHT22;4744;52.576;13.568;2022-12-07T06:31:17;2.70;1.00
9410;DHT22;4744;52.576;13.568;2022-12-07T06:33:46;2.70;1.00
9410;DHT22;4744;52.576;13.568;2022-12-07T06:36:13;2.70;1.00
9410;DHT22;4744;52.576;13.568;2022-12-07T06:38:40;2.70;1.00
9410;DHT22;4744;52.576;13.568;2022-12-07T06:41:07;2.70;1.00
9410;DHT22;4744;52.576;13.568;2022-12-07T06:43:34;2.80;1.00
9410;DHT22;4744;52.576;13.568;2022-12-07T06:46:01;2.80;1.00
9410;DHT22;4744;52.576;13.568;2022-12-07T06:48:28;2.80;1.00
9410;DHT22;4744;52.576;13.568;2022-12-07T06:50:56;2.70;1.00
9410;DHT22;4744;52.576;13.568;2022-12-07T06:53:23;2.70;1.00
9410;DHT22;4744;52.576;13.568;2022-12-07T06:55:50;2.70;1.00
9410;DHT22;4744;52.576;13.568;2022-12-07T06:58:17;2.70;1.00
9410;DHT22;4744;52.576;13.568;2022-12-07T07:00:45;2.80;1.00
9410;DHT22;4744;52.576;13.568;2022-12-07T07:03:12;2.80;1.00
9410;DHT22;4744;52.576;13.568;2022-12-07T07:05:38;2.90;1.00
9410;DHT22;4744;52.576;13.568;2022-12-07T07:08:07;2.80;1.00
9410;DHT22;4744;52.576;13.568;2022-12-07T07:10:34;2.90;1.00
9410;DHT22;4744;52.576;13.568;2022-12-07T07:13:01;2.90;1.00
9410;DHT22;4744;52.576;13.568;2022-12-07T07:15:28;2.90;1.00
9410;DHT22;4744;52.576;13.568;2022-12-07T07:17:55;3.00;1.00
9410;DHT22;4744;52.576;13.568;2022-12-07T07:20:22;3.00;1.00
9410;DHT22;4744;52.576;13.568;2022-12-07T07:22:49;3.00;1.00
9410;DHT22;4744;52.576;13.568;2022-12-07T07:25:17;3.00;1.00
9410;DHT22;4744;52.576;13.568;2022-12-07T07:27:44;3.10;1.00
9410;DHT22;4744;52.576;13.568;2022-12-07T07:30:12;3.10;1.00
9410;DHT22;4744;52.576;13.568;2022-12-07T07:32:39;3.10;1.00
9410;DHT22;4744;52.576;13.568;2022-12-07T07:35:06;3.10;1.00
9410;DHT22;4744;52.576;13.568;2022-12-07T07:37:34;3.10;1.00
9410;DHT22;4744;52.576;13.568;2022-12-07T07:40:01;3.20;1.00
9410;DHT22;4744;52.576;13.568;2022-12-07T07:42:29;3.20;1.00
9410;DHT22;4744;52.576;13.568;2022-12-07T07:44:56;3.20;1.00
9410;DHT22;4744;52.576;13.568;2022-12-07T07:47:23;3.30;1.00
9410;DHT22;4744;52.576;13.568;2022-12-07T07:49:50;3.30;1.00
9410;DHT22;4744;52.576;13.568;2022-12-07T07:52:17;3.30;1.00
9410;DHT22;4744;52.576;13.568;2022-12-07T07:54:43;3.40;1.00
9410;DHT22;4744;52.576;13.568;2022-12-07T07:57:10;3.40;1.00
9410;DHT22;4744;52.576;13.568;2022-12-07T07:59:39;3.40;1.00
9410;DHT22;4744;52.576;13.568;2022-12-07T08:02:05;3.50;1.00
9410;DHT22;4744;52.576;13.568;2022-12-07T08:04:32;3.50;1.00
9410;DHT22;4744;52.576;13.568;2022-12-07T08:06:59;3.50;1.00
9410;DHT22;4744;52.576;13.568;2022-12-07T08:09:26;3.50;1.00
9410;DHT22;4744;52.576;13.568;2022-12-07T08:11:53;3.50;1.00
9410;DHT22;4744;52.576;13.568;2022-12-07T08:14:20;3.50;1.00
9410;DHT22;4744;52.576;13.568;2022-12-07T08:16:48;3.50;1.00
9410;DHT22;4744;52.576;13.568;2022-12-07T08:19:15;3.50;1.00
9410;DHT22;4744;52.576;13.568;2022-12-07T08:21:42;3.60;1.00
9410;DHT22;4744;52.576;13.568;2022-12-07T08:24:09;3.60;1.00
9410;DHT22;4744;52.576;13.568;2022-12-07T08:26:36;3.60;1.00
9410;DHT22;4744;52.576;13.568;2022-12-07T08:29:03;3.60;1.00
9410;DHT22;4744;52.576;13.568;2022-12-07T08:31:30;3.70;1.00
9410;DHT22;4744;52.576;13.568;2022-12-07T08:33:58;3.70;1.00
9410;DHT22;4744;52.576;13.568;2022-12-07T08:36:25;3.60;1.00
9410;DHT22;4744;52.576;13.568;2022-12-07T08:38:52;3.70;1.00
9410;DHT22;4744;52.576;13.568;2022-12-07T08:41:19;3.60;1.00
9410;DHT22;4744;52.576;13.568;2022-12-07T08:43:46;3.70;1.00
9410;DHT22;4744;52.576;13.568;2022-12-07T08:46:18;3.60;1.00
9410;DHT22;4744;52.576;13.568;2022-12-07T08:48:48;3.70;1.00
9410;DHT22;4744;52.576;13.568;2022-12-07T08:51:17;3.70;1.00
9410;DHT22;4744;52.576;13.568;2022-12-07T08:53:45;3.70;1.00
9410;DHT22;4744;52.576;13.568;2022-12-07T08:56:12;3.70;1.00
9410;DHT22;4744;52.576;13.568;2022-12-07T08:58:39;3.60;1.00
9410;DHT22;4744;52.576;13.568;2022-12-07T09:01:06;3.70;1.00
9410;DHT22;4744;52.576;13.568;2022-12-07T09:03:33;3.70;1.00
9410;DHT22;4744;52.576;13.568;2022-12-07T09:06:00;3.60;1.00
9410;DHT22;4744;52.576;13.568;2022-12-07T09:08:32;3.70;1.00
9410;DHT22;4744;52.576;13.568;2022-12-07T09:11:00;3.80;1.00
9410;DHT22;4744;52.576;13.568;2022-12-07T09:13:27;3.70;1.00
9410;DHT22;4744;52.576;13.568;2022-12-07T09:15:54;3.70;1.00
9410;DHT22;4744;52.576;13.568;2022-12-07T09:18:21;3.90;1.00
9410;DHT22;4744;52.576;13.568;2022-12-07T09:20:48;4.20;1.00
9410;DHT22;4744;52.576;13.568;2022-12-07T09:23:15;4.30;1.00
9410;DHT22;4744;52.576;13.568;2022-12-07T09:25:43;4.20;1.00
9410;DHT22;4744;52.576;13.568;2022-12-07T09:28:10;4.20;1.00
9410;DHT22;4744;52.576;13.568;2022-12-07T09:30:38;4.20;1.00
9410;DHT22;4744;52.576;13.568;2022-12-07T09:33:05;4.30;1.00
9410;DHT22;4744;52.576;13.568;2022-12-07T09:35:32;4.30;1.00
9410;DHT22;4744;52.576;13.568;2022-12-07T09:38:00;4.30;1.00
9410;DHT22;4744;52.576;13.568;2022-12-07T09:40:27;4.20;1.00
9410;DHT22;4744;52.576;13.568;2022-12-07T09:42:56;4.20;1.00
9410;DHT22;4744;52.576;13.568;2022-12-07T09:45:24;4.30;1.00
9410;DHT22;4744;52.576;13.568;2022-12-07T09:47:53;4.60;1.00
9410;DHT22;4744;52.576;13.568;2022-12-07T09:50:23;4.60;1.00
9410;DHT22;4744;52.576;13.568;2022-12-07T09:52:51;4.40;1.00
9410;DHT22;4744;52.576;13.568;2022-12-07T09:55:23;4.30;1.00
9410;DHT22;4744;52.576;13.568;2022-12-07T09:57:52;4.20;1.00
9410;DHT22;4744;52.576;13.568;2022-12-07T10:00:23;4.10;1.00
9410;DHT22;4744;52.576;13.568;2022-12-07T10:02:55;4.00;1.00
9410;DHT22;4744;52.576;13.568;2022-12-07T10:05:25;4.00;1.00
9410;DHT22;4744;52.576;13.568;2022-12-07T10:07:53;3.90;1.00
9410;DHT22;4744;52.576;13.568;2022-12-07T10:10:24;3.80;1.00
9410;DHT22;4744;52.576;13.568;2022-12-07T10:12:58;3.70;1.00
9410;DHT22;4744;52.576;13.568;2022-12-07T10:18:27;3.70;1.00
9410;DHT22;4744;52.576;13.568;2022-12-07T10:21:12;3.60;1.00
9410;DHT22;4744;52.576;13.568;2022-12-07T10:23:41;3.60;1.00
9410;DHT22;4744;52.576;13.568;2022-12-07T10:26:28;3.60;1.00
9410;DHT22;4744;52.576;13.568;2022-12-07T10:28:58;3.60;1.00
9410;DHT22;4744;52.576;13.568;2022-12-07T10:31:25;3.60;1.00
9410;DHT22;4744;52.576;13.568;2022-12-07T10:33:55;3.60;1.00
9410;DHT22;4744;52.576;13.568;2022-12-07T10:36:25;3.60;1.00
9410;DHT22;4744;52.576;13.568;2022-12-07T10:39:00;3.60;1.00
9410;DHT22;4744;52.576;13.568;2022-12-07T10:41:27;4.00;1.00
9410;DHT22;4744;52.576;13.568;2022-12-07T10:43:56;4.10;1.00
9410;DHT22;4744;52.576;13.568;2022-12-07T10:46:53;4.10;1.00
9410;DHT22;4744;52.576;13.568;2022-12-07T10:49:46;4.10;1.00
9410;DHT22;4744;52.576;13.568;2022-12-07T10:52:24;4.10;1.00
9410;DHT22;4744;52.576;13.568;2022-12-07T10:55:08;4.00;1.00
9410;DHT22;4744;52.576;13.568;2022-12-07T10:57:47;4.00;1.00
9410;DHT22;4744;52.576;13.568;2022-12-07T11:00:21;3.90;1.00
9410;DHT22;4744;52.576;13.568;2022-12-07T11:03:05;4.00;1.00
9410;DHT22;4744;52.576;13.568;2022-12-07T11:05:39;4.00;1.00
9410;DHT22;4744;52.576;13.568;2022-12-07T11:08:17;4.10;1.00
9410;DHT22;4744;52.576;13.568;2022-12-07T11:10:52;4.20;1.00
9410;DHT22;4744;52.576;13.568;2022-12-07T11:13:28;4.30;1.00
9410;DHT22;4744;52.576;13.568;2022-12-07T11:16:04;4.40;1.00
9410;DHT22;4744;52.576;13.568;2022-12-07T11:18:39;4.30;1.00
9410;DHT22;4744;52.576;13.568;2022-12-07T11:21:18;4.20;1.00
9410;DHT22;4744;52.576;13.568;2022-12-07T11:23:51;4.10;1.00
9410;DHT22;4744;52.576;13.568;2022-12-07T11:26:32;4.10;1.00
9410;DHT22;4744;52.576;13.568;2022-12-07T11:32:00;3.90;1.00
9410;DHT22;4744;52.576;13.568;2022-12-07T11:34:38;3.90;1.00
9410;DHT22;4744;52.576;13.568;2022-12-07T11:37:12;3.80;1.00
9410;DHT22;4744;52.576;13.568;2022-12-07T11:39:44;3.80;1.00
9410;DHT22;4744;52.576;13.568;2022-12-07T11:42:16;3.80;1.00
9410;DHT22;4744;52.576;13.568;2022-12-07T11:44:51;3.80;1.00
9410;DHT22;4744;52.576;13.568;2022-12-07T11:47:25;3.80;1.00
9410;DHT22;4744;52.576;13.568;2022-12-07T11:49:55;3.80;1.00
9410;DHT22;4744;52.576;13.568;2022-12-07T11:52:32;3.70;1.00
9410;DHT22;4744;52.576;13.568;2022-12-07T11:55:16;3.70;1.00
9410;DHT22;4744;52.576;13.568;2022-12-07T11:57:46;3.60;1.00
9410;DHT22;4744;52.576;13.568;2022-12-07T12:00:18;3.70;1.00
9410;DHT22;4744;52.576;13.568;2022-12-07T12:02:49;3.70;1.00
9410;DHT22;4744;52.576;13.568;2022-12-07T12:05:19;3.70;1.00
9410;DHT22;4744;52.576;13.568;2022-12-07T12:07:53;3.80;1.00
9410;DHT22;4744;52.576;13.568;2022-12-07T12:10:27;3.80;1.00
9410;DHT22;4744;52.576;13.568;2022-12-07T12:13:25;3.80;1.00
9410;DHT22;4744;52.576;13.568;2022-12-07T12:16:10;3.90;1.00
9410;DHT22;4744;52.576;13.568;2022-12-07T12:18:54;3.90;1.00
9410;DHT22;4744;52.576;13.568;2022-12-07T12:21:27;3.90;1.00
9410;DHT22;4744;52.576;13.568;2022-12-07T12:23:59;3.90;1.00
9410;DHT22;4744;52.576;13.568;2022-12-07T12:26:29;3.90;1.00
9410;DHT22;4744;52.576;13.568;2022-12-07T12:28:58;3.90;1.00
9410;DHT22;4744;52.576;13.568;2022-12-07T12:31:36;4.00;1.00
9410;DHT22;4744;52.576;13.568;2022-12-07T12:34:32;4.00;1.00
9410;DHT22;4744;52.576;13.568;2022-12-07T12:36:59;4.10;1.00
9410;DHT22;4744;52.576;13.568;2022-12-07T12:39:28;4.00;1.00
9410;DHT22;4744;52.576;13.568;2022-12-07T12:42:01;4.00;1.00
9410;DHT22;4744;52.576;13.568;2022-12-07T12:47:57;4.10;1.00
9410;DHT22;4744;52.576;13.568;2022-12-07T12:50:29;4.10;1.00
9410;DHT22;4744;52.576;13.568;2022-12-07T12:53:02;4.10;1.00
9410;DHT22;4744;52.576;13.568;2022-12-07T12:58:43;4.10;1.00
9410;DHT22;4744;52.576;13.568;2022-12-07T13:04:23;4.20;1.00
9410;DHT22;4744;52.576;13.568;2022-12-07T13:06:51;4.20;1.00
9410;DHT22;4744;52.576;13.568;2022-12-07T13:09:21;4.20;1.00
9410;DHT22;4744;52.576;13.568;2022-12-07T13:11:56;4.10;1.00
9410;DHT22;4744;52.576;13.568;2022-12-07T13:14:51;4.10;1.00
9410;DHT22;4744;52.576;13.568;2022-12-07T13:20:50;4.10;1.00
9410;DHT22;4744;52.576;13.568;2022-12-07T13:23:26;4.10;1.00
9410;DHT22;4744;52.576;13.568;2022-12-07T13:26:12;4.10;1.00
9410;DHT22;4744;52.576;13.568;2022-12-07T13:28:44;4.10;1.00
9410;DHT22;4744;52.576;13.568;2022-12-07T13:31:32;4.10;1.00
9410;DHT22;4744;52.576;13.568;2022-12-07T13:34:01;4.00;1.00
9410;DHT22;4744;52.576;13.568;2022-12-07T13:36:30;4.00;1.00
9410;DHT22;4744;52.576;13.568;2022-12-07T13:39:11;4.00;1.00
9410;DHT22;4744;52.576;13.568;2022-12-07T13:41:43;4.00;1.00
9410;DHT22;4744;52.576;13.568;2022-12-07T13:44:13;4.00;1.00
9410;DHT22;4744;52.576;13.568;2022-12-07T13:46:47;4.00;1.00
9410;DHT22;4744;52.576;13.568;2022-12-07T13:49:18;4.00;1.00
9410;DHT22;4744;52.576;13.568;2022-12-07T13:51:46;3.90;1.00
9410;DHT22;4744;52.576;13.568;2022-12-07T13:54:14;3.90;1.00
9410;DHT22;4744;52.576;13.568;2022-12-07T13:56:42;3.90;1.00
9410;DHT22;4744;52.576;13.568;2022-12-07T13:59:15;3.90;1.00
9410;DHT22;4744;52.576;13.568;2022-12-07T14:01:45;3.90;1.00
9410;DHT22;4744;52.576;13.568;2022-12-07T14:04:34;3.90;1.00
9410;DHT22;4744;52.576;13.568;2022-12-07T14:07:19;3.90;1.00
9410;DHT22;4744;52.576;13.568;2022-12-07T14:09:55;3.90;1.00
9410;DHT22;4744;52.576;13.568;2022-12-07T14:12:23;3.80;1.00
9410;DHT22;4744;52.576;13.568;2022-12-07T14:14:52;3.80;1.00
9410;DHT22;4744;52.576;13.568;2022-12-07T14:17:21;3.80;1.00
9410;DHT22;4744;52.576;13.568;2022-12-07T14:19:51;3.80;1.00
9410;DHT22;4744;52.576;13.568;2022-12-07T14:22:27;3.80;1.00
9410;DHT22;4744;52.576;13.568;2022-12-07T14:25:16;3.80;1.00
9410;DHT22;4744;52.576;13.568;2022-12-07T14:27:54;3.80;1.00
9410;DHT22;4744;52.576;13.568;2022-12-07T14:30:26;3.80;1.00
9410;DHT22;4744;52.576;13.568;2022-12-07T14:32:56;3.80;1.00
9410;DHT22;4744;52.576;13.568;2022-12-07T14:35:23;3.80;1.00
9410;DHT22;4744;52.576;13.568;2022-12-07T14:37:51;3.80;1.00
9410;DHT22;4744;52.576;13.568;2022-12-07T14:40:19;3.80;1.00
9410;DHT22;4744;52.576;13.568;2022-12-07T14:42:49;3.70;1.00
9410;DHT22;4744;52.576;13.568;2022-12-07T14:45:18;3.80;1.00
9410;DHT22;4744;52.576;13.568;2022-12-07T14:47:47;3.70;1.00
9410;DHT22;4744;52.576;13.568;2022-12-07T14:50:16;3.80;1.00
9410;DHT22;4744;52.576;13.568;2022-12-07T14:52:47;3.80;1.00
9410;DHT22;4744;52.576;13.568;2022-12-07T14:55:20;3.70;1.00
9410;DHT22;4744;52.576;13.568;2022-12-07T14:57:49;3.80;1.00
9410;DHT22;4744;52.576;13.568;2022-12-07T15:00:17;3.70;1.00
9410;DHT22;4744;52.576;13.568;2022-12-07T15:02:45;3.70;1.00
9410;DHT22;4744;52.576;13.568;2022-12-07T15:05:13;3.70;1.00
9410;DHT22;4744;52.576;13.568;2022-12-07T15:07:41;3.70;1.00
9410;DHT22;4744;52.576;13.568;2022-12-07T15:10:14;3.70;1.00
9410;DHT22;4744;52.576;13.568;2022-12-07T15:12:44;3.70;1.00
9410;DHT22;4744;52.576;13.568;2022-12-07T15:15:11;3.70;1.00
9410;DHT22;4744;52.576;13.568;2022-12-07T15:17:38;3.70;1.00
9410;DHT22;4744;52.576;13.568;2022-12-07T15:20:09;3.80;1.00
9410;DHT22;4744;52.576;13.568;2022-12-07T15:22:39;3.70;1.00
9410;DHT22;4744;52.576;13.568;2022-12-07T15:25:06;3.70;1.00
9410;DHT22;4744;52.576;13.568;2022-12-07T15:27:34;3.70;1.00
9410;DHT22;4744;52.576;13.568;2022-12-07T15:30:00;3.70;1.00
9410;DHT22;4744;52.576;13.568;2022-12-07T15:32:28;3.70;1.00
9410;DHT22;4744;52.576;13.568;2022-12-07T15:34:55;3.70;1.00
9410;DHT22;4744;52.576;13.568;2022-12-07T15:37:22;3.70;1.00
9410;DHT22;4744;52.576;13.568;2022-12-07T15:39:50;3.60;1.00
9410;DHT22;4744;52.576;13.568;2022-12-07T15:42:17;3.60;1.00
9410;DHT22;4744;52.576;13.568;2022-12-07T15:44:44;3.60;1.00
9410;DHT22;4744;52.576;13.568;2022-12-07T15:47:28;3.60;1.00
9410;DHT22;4744;52.576;13.568;2022-12-07T15:49:55;3.50;1.00
9410;DHT22;4744;52.576;13.568;2022-12-07T15:52:22;3.50;1.00
9410;DHT22;4744;52.576;13.568;2022-12-07T15:54:50;3.50;1.00
9410;DHT22;4744;52.576;13.568;2022-12-07T15:57:17;3.50;1.00
9410;DHT22;4744;52.576;13.568;2022-12-07T15:59:44;3.40;1.00
9410;DHT22;4744;52.576;13.568;2022-12-07T16:02:11;3.50;1.00
9410;DHT22;4744;52.576;13.568;2022-12-07T16:04:38;3.40;1.00
9410;DHT22;4744;52.576;13.568;2022-12-07T16:07:05;3.40;1.00
9410;DHT22;4744;52.576;13.568;2022-12-07T16:09:32;3.40;1.00
9410;DHT22;4744;52.576;13.568;2022-12-07T16:12:00;3.40;1.00
9410;DHT22;4744;52.576;13.568;2022-12-07T16:14:27;3.40;1.00
9410;DHT22;4744;52.576;13.568;2022-12-07T16:16:54;3.50;1.00
9410;DHT22;4744;52.576;13.568;2022-12-07T16:19:21;3.60;1.00
9410;DHT22;4744;52.576;13.568;2022-12-07T16:21:48;3.30;1.00
9410;DHT22;4744;52.576;13.568;2022-12-07T16:24:15;3.00;1.00
9410;DHT22;4744;52.576;13.568;2022-12-07T16:26:43;2.70;1.00
9410;DHT22;4744;52.576;13.568;2022-12-07T16:29:12;2.50;1.00
9410;DHT22;4744;52.576;13.568;2022-12-07T16:31:40;2.30;1.00
9410;DHT22;4744;52.576;13.568;2022-12-07T16:34:07;2.20;1.00
9410;DHT22;4744;52.576;13.568;2022-12-07T16:36:35;2.10;1.00
9410;DHT22;4744;52.576;13.568;2022-12-07T16:39:02;2.00;1.00
9410;DHT22;4744;52.576;13.568;2022-12-07T16:41:29;2.00;1.00
9410;DHT22;4744;52.576;13.568;2022-12-07T16:43:56;2.00;1.00
9410;DHT22;4744;52.576;13.568;2022-12-07T16:46:25;2.10;1.00
9410;DHT22;4744;52.576;13.568;2022-12-07T16:48:52;2.10;1.00
9410;DHT22;4744;52.576;13.568;2022-12-07T16:51:19;2.20;1.00
9410;DHT22;4744;52.576;13.568;2022-12-07T16:53:45;2.30;1.00
9410;DHT22;4744;52.576;13.568;2022-12-07T16:56:14;2.30;1.00
9410;DHT22;4744;52.576;13.568;2022-12-07T16:58:42;2.30;1.00
9410;DHT22;4744;52.576;13.568;2022-12-07T17:01:11;2.30;1.00
9410;DHT22;4744;52.576;13.568;2022-12-07T17:03:39;2.30;1.00